Time;durP1;ratioP1;P1;durP2;ratioP2;P2;SDS_P1;SDS_P2;PMS_P1;PMS_P2;Temp;Humidity;BMP_temperature;BMP_pressure;BME280_temperature;BME280_humidity;BME280_pressure;Samples;Min_cycle;Max_cycle;Signal;HPM_P1;HPM_P2
2021/10/28 00:12:40;;;;;;;;;;;;;;;18.45;62.11;102161.44;5030929;28;1177;-57
2021/10/28 00:15:14;;;;;;;;;;;;;;;18.43;62.19;102159.81;5031269;28;1954;-57
2021/10/28 00:17:46;;;;;;;;;;;;;;;18.48;62.19;102174.66;5027843;28;1521;-57
2021/10/28 00:20:13;;;;;;;;;;;;;;;18.44;62.17;102162.41;5029048;28;1934;-58
2021/10/28 00:22:39;;;;;;;;;;;;;;;18.41;61.95;102159.06;5025533;28;1472;-57
2021/10/28 00:25:07;;;;;;;;;;;;;;;18.47;62.40;102161.34;5029371;28;1539;-58
2021/10/28 00:27:33;;;;;;;;;;;;;;;18.46;62.14;102162.28;5027629;28;1363;-58
2021/10/28 00:30:00;;;;;;;;;;;;;;;18.44;61.84;102164.22;5033057;28;1553;-57
2021/10/28 00:32:28;;;;;;;;;;;;;;;18.43;62.02;102154.47;5032386;28;1781;-57
2021/10/28 00:34:55;;;;;;;;;;;;;;;18.44;61.68;102159.75;5025563;28;1576;-59
2021/10/28 00:37:21;;;;;;;;;;;;;;;18.43;61.20;102165.19;5031809;28;1552;-58
2021/10/28 00:39:48;;;;;;;;;;;;;;;18.39;61.58;102148.44;5031286;28;1914;-58
2021/10/28 00:42:15;;;;;;;;;;;;;;;18.44;61.78;102162.41;5035483;28;1331;-57
2021/10/28 00:44:42;;;;;;;;;;;;;;;18.41;61.62;102156.38;5031772;28;1523;-58
2021/10/28 00:47:08;;;;;;;;;;;;;;;18.40;62.10;102136.78;5031178;28;1590;-57
2021/10/28 00:49:36;;;;;;;;;;;;;;;18.42;61.50;102144.69;5024442;28;1375;-58
2021/10/28 00:52:03;;;;;;;;;;;;;;;18.41;62.01;102143.84;5027409;28;1489;-58
2021/10/28 00:54:30;;;;;;;;;;;;;;;18.42;61.77;102144.69;5026935;28;1468;-57
2021/10/28 00:56:56;;;;;;;;;;;;;;;18.43;61.56;102146.44;5033088;28;1768;-57
2021/10/28 00:59:23;;;;;;;;;;;;;;;18.39;61.24;102139.56;5032311;28;1902;-59
2021/10/28 01:01:50;;;;;;;;;;;;;;;18.39;61.40;102128.84;5027011;28;1814;-58
2021/10/28 01:04:16;;;;;;;;;;;;;;;18.43;61.63;102141.06;5037068;28;1504;-56
2021/10/28 01:06:45;;;;;;;;;;;;;;;18.43;61.27;102130.38;5027923;28;1472;-58
2021/10/28 01:09:12;;;;;;;;;;;;;;;18.39;61.36;102127.00;5023925;28;1477;-57
2021/10/28 01:11:40;;;;;;;;;;;;;;;18.37;60.95;102126.25;5032786;28;1304;-58
2021/10/28 01:14:06;;;;;;;;;;;;;;;18.40;61.20;102138.56;5027795;28;1792;-58
2021/10/28 01:16:34;;;;;;;;;;;;;;;18.38;61.63;102125.31;5027443;28;1521;-58
2021/10/28 01:19:00;;;;;;;;;;;;;;;18.39;61.02;102123.47;5031978;28;1505;-58
2021/10/28 01:21:28;;;;;;;;;;;;;;;18.40;61.21;102127.88;5026827;28;1431;-57
2021/10/28 01:23:55;;;;;;;;;;;;;;;18.35;60.69;102122.81;5026811;28;1583;-56
2021/10/28 01:26:21;;;;;;;;;;;;;;;18.35;61.29;102121.97;5032626;28;1356;-57
2021/10/28 01:28:52;;;;;;;;;;;;;;;18.38;61.36;102121.75;5031214;28;1398;-58
2021/10/28 01:31:20;;;;;;;;;;;;;;;18.33;61.16;102123.88;5028532;28;1497;-57
2021/10/28 01:33:46;;;;;;;;;;;;;;;18.37;61.48;102136.97;5027995;28;1513;-57
2021/10/28 01:36:13;;;;;;;;;;;;;;;18.34;60.75;102125.59;5023941;28;1517;-58
2021/10/28 01:38:42;;;;;;;;;;;;;;;18.34;60.99;102133.63;5032824;28;1460;-58
2021/10/28 01:41:10;;;;;;;;;;;;;;;18.36;61.04;102140.59;5031179;28;2050;-58
2021/10/28 01:43:36;;;;;;;;;;;;;;;18.32;61.30;102127.50;5030443;28;1413;-58
2021/10/28 01:46:04;;;;;;;;;;;;;;;18.34;60.26;102138.97;5033054;28;1332;-58
2021/10/28 01:48:31;;;;;;;;;;;;;;;18.33;60.65;102135.44;5028393;28;1545;-58
2021/10/28 01:50:58;;;;;;;;;;;;;;;18.34;60.38;102130.94;5028322;28;1461;-57
2021/10/28 01:53:24;;;;;;;;;;;;;;;18.34;61.09;102122.91;5030829;28;1410;-58
2021/10/28 01:55:52;;;;;;;;;;;;;;;18.32;60.70;102128.34;5022680;28;1397;-58
2021/10/28 01:58:22;;;;;;;;;;;;;;;18.32;61.15;102122.16;5030188;28;1504;-57
2021/10/28 02:00:49;;;;;;;;;;;;;;;18.30;61.11;102119.56;5027736;28;1906;-57
2021/10/28 02:03:16;;;;;;;;;;;;;;;18.32;60.47;102127.50;5030749;28;1515;-58
2021/10/28 02:05:42;;;;;;;;;;;;;;;19.42;58.29;102138.16;5031037;28;1919;-56
2021/10/28 02:08:09;;;;;;;;;;;;;;;18.87;60.00;102132.84;5030280;28;1472;-58
2021/10/28 02:10:38;;;;;;;;;;;;;;;18.77;59.60;102130.84;5024847;28;1543;-58
2021/10/28 02:13:06;;;;;;;;;;;;;;;18.67;60.73;102119.88;5032040;28;1519;-57
2021/10/28 02:15:32;;;;;;;;;;;;;;;18.63;60.58;102134.44;5027666;28;1531;-58
2021/10/28 02:17:59;;;;;;;;;;;;;;;18.73;60.12;102132.88;5027602;28;1426;-58
2021/10/28 02:20:25;;;;;;;;;;;;;;;18.81;59.92;102143.13;5029029;28;1971;-57
2021/10/28 02:22:52;;;;;;;;;;;;;;;18.87;59.65;102118.59;5031062;28;1507;-57
2021/10/28 02:25:19;;;;;;;;;;;;;;;18.91;60.38;102127.28;5030389;28;1407;-57
2021/10/28 02:27:46;;;;;;;;;;;;;;;18.85;60.86;102117.84;5029436;28;1512;-59
2021/10/28 02:30:16;;;;;;;;;;;;;;;18.84;60.01;102135.75;5030538;28;1305;-59
2021/10/28 02:32:43;;;;;;;;;;;;;;;18.89;60.44;102143.47;5017998;28;1611;-58
2021/10/28 02:35:10;;;;;;;;;;;;;;;18.92;60.74;102137.03;5024021;28;1698;-57
2021/10/28 02:37:37;;;;;;;;;;;;;;;18.91;60.67;102130.81;5034338;28;1661;-58
2021/10/28 02:40:04;;;;;;;;;;;;;;;18.93;59.73;102128.06;5027688;28;1973;-58
2021/10/28 02:42:31;;;;;;;;;;;;;;;18.96;60.38;102138.56;5026813;28;1539;-58
2021/10/28 02:44:58;;;;;;;;;;;;;;;18.98;59.80;102137.50;5031822;28;1506;-57
2021/10/28 02:47:26;;;;;;;;;;;;;;;19.00;59.58;102142.75;5028238;28;1494;-59
2021/10/28 02:49:53;;;;;;;;;;;;;;;19.04;59.51;102137.09;5030189;28;1422;-57
2021/10/28 02:52:19;;;;;;;;;;;;;;;19.04;59.90;102139.78;5032948;28;1516;-58
2021/10/28 02:54:46;;;;;;;;;;;;;;;19.07;59.63;102136.88;5029026;28;1418;-59
2021/10/28 02:57:12;;;;;;;;;;;;;;;19.08;60.01;102138.63;5035559;28;1998;-57
2021/10/28 02:59:39;;;;;;;;;;;;;;;19.15;59.36;102139.06;5030517;28;1906;-57
2021/10/28 03:02:06;;;;;;;;;;;;;;;19.17;60.00;102136.28;5032501;28;1504;-58
2021/10/28 03:04:34;;;;;;;;;;;;;;;19.21;58.84;102137.78;5029143;28;1464;-59
2021/10/28 03:07:00;;;;;;;;;;;;;;;19.26;59.14;102135.66;5027465;28;1488;-57
2021/10/28 03:09:28;;;;;;;;;;;;;;;19.27;59.67;102142.72;5034060;28;1578;-58
2021/10/28 03:11:57;;;;;;;;;;;;;;;19.26;59.09;102138.34;5031248;28;1394;-58
2021/10/28 03:14:29;;;;;;;;;;;;;;;19.27;58.69;102142.72;5030013;28;1538;-57
2021/10/28 03:16:59;;;;;;;;;;;;;;;19.24;59.67;102127.72;5033903;28;1409;-57
2021/10/28 03:19:43;;;;;;;;;;;;;;;19.25;58.59;102137.47;5028130;28;1467;-57
2021/10/28 03:27:53;;;;;;;;;;;;;;;19.31;58.53;102138.88;4978912;28;1573;-59
2021/10/28 03:30:19;;;;;;;;;;;;;;;19.33;59.10;102147.69;5013315;28;1448;-59
2021/10/28 03:32:46;;;;;;;;;;;;;;;19.37;58.76;102145.66;5026274;28;1711;-58
2021/10/28 03:35:15;;;;;;;;;;;;;;;19.31;58.90;102138.88;5028924;28;1773;-58
2021/10/28 03:37:46;;;;;;;;;;;;;;;19.31;58.58;102149.59;5032626;28;1469;-57
2021/10/28 03:57:53;;;;;;;;;;;;;;;19.43;59.06;102148.75;5020435;28;2393;-57
2021/10/28 04:30:49;;;;;;;;;;;;;;;19.46;58.52;102153.94;5032937;28;1787;-57
2021/10/28 04:33:16;;;;;;;;;;;;;;;19.46;58.68;102170.03;5029189;28;1449;-57
2021/10/28 04:35:42;;;;;;;;;;;;;;;19.49;58.42;102168.94;5033317;28;1510;-57
2021/10/28 04:38:09;;;;;;;;;;;;;;;19.41;58.70;102156.06;5032727;28;1316;-56
2021/10/28 04:40:36;;;;;;;;;;;;;;;19.41;60.00;102166.78;5029110;28;1914;-56
2021/10/28 04:43:03;;;;;;;;;;;;;;;19.37;58.85;102157.22;5032201;28;1611;-57
2021/10/28 04:45:31;;;;;;;;;;;;;;;19.42;59.00;102160.47;5032106;28;1406;-57
2021/10/28 04:47:57;;;;;;;;;;;;;;;19.41;58.99;102164.09;5031320;28;1317;-57
2021/10/28 04:50:24;;;;;;;;;;;;;;;19.44;60.19;102168.44;5025847;28;1706;-56
2021/10/28 04:52:51;;;;;;;;;;;;;;;19.43;59.68;102167.53;5032903;28;1526;-57
2021/10/28 04:55:17;;;;;;;;;;;;;;;19.41;60.13;102177.50;5034519;28;1363;-58
2021/10/28 04:57:44;;;;;;;;;;;;;;;19.36;53.78;102166.25;5032629;28;1702;-57
2021/10/28 05:00:11;;;;;;;;;;;;;;;19.40;58.13;102174.97;5029556;28;1906;-59
2021/10/28 05:02:39;;;;;;;;;;;;;;;19.44;58.88;102181.84;5034213;28;1600;-58
2021/10/28 05:05:07;;;;;;;;;;;;;;;19.52;59.49;102187.53;5031960;28;1537;-57
2021/10/28 05:07:33;;;;;;;;;;;;;;;19.44;59.68;102176.47;5030735;28;1427;-57
2021/10/28 05:10:00;;;;;;;;;;;;;;;19.44;59.20;102181.84;5027906;28;1402;-58
2021/10/28 05:12:27;;;;;;;;;;;;;;;19.23;59.96;102174.25;5034534;28;1248;-57
2021/10/28 05:14:53;;;;;;;;;;;;;;;19.24;60.20;102204.63;5025466;28;1623;-58
2021/10/28 05:17:20;;;;;;;;;;;;;;;19.29;60.05;102205.16;5030341;28;1449;-57
2021/10/28 05:19:48;;;;;;;;;;;;;;;19.42;59.92;102198.03;5027803;28;1662;-57
2021/10/28 05:22:14;;;;;;;;;;;;;;;19.44;59.81;102209.50;5026166;28;1983;-58
2021/10/28 05:24:41;;;;;;;;;;;;;;;19.44;59.91;102204.16;5028972;28;1465;-57
2021/10/28 05:27:08;;;;;;;;;;;;;;;19.42;60.27;102205.22;5028807;28;1570;-57
2021/10/28 05:29:34;;;;;;;;;;;;;;;19.32;60.94;102204.97;5026642;28;1469;-57
2021/10/28 05:32:01;;;;;;;;;;;;;;;19.46;61.03;102215.63;5022892;28;1614;-57
2021/10/28 05:34:27;;;;;;;;;;;;;;;19.40;60.14;102207.16;5030234;28;1558;-57
2021/10/28 05:36:55;;;;;;;;;;;;;;;19.39;60.50;102222.38;5031352;28;1492;-58
2021/10/28 05:39:22;;;;;;;;;;;;;;;19.43;60.67;102218.50;5029906;28;1646;-59
2021/10/28 05:41:48;;;;;;;;;;;;;;;19.47;61.54;102225.38;5028553;28;1910;-62
2021/10/28 05:44:16;;;;;;;;;;;;;;;19.40;60.86;102223.25;5030625;28;1608;-61
2021/10/28 05:46:43;;;;;;;;;;;;;;;19.39;62.07;102219.69;5033519;28;1402;-60
2021/10/28 05:49:09;;;;;;;;;;;;;;;19.37;61.57;102223.44;5031598;28;1566;-57
2021/10/28 05:51:37;;;;;;;;;;;;;;;19.40;61.67;102231.31;5030975;28;1532;-59
2021/10/28 05:54:06;;;;;;;;;;;;;;;19.44;61.05;102230.97;5026222;28;1449;-58
2021/10/28 05:56:32;;;;;;;;;;;;;;;19.40;61.22;102228.63;5025388;28;1529;-58
2021/10/28 05:58:59;;;;;;;;;;;;;;;19.42;nan;102234.75;5028577;28;1532;-67
2021/10/28 06:01:25;;;;;;;;;;;;;;;19.51;nan;102238.63;5030329;28;1906;-72
2021/10/28 06:03:52;;;;;;;;;;;;;;;19.51;nan;102235.94;5029449;28;1519;-59
2021/10/28 06:06:19;;;;;;;;;;;;;;;19.50;nan;102234.19;5028445;28;1446;-59
2021/10/28 06:08:46;;;;;;;;;;;;;;;19.46;nan;102234.41;5032244;28;1237;-59
2021/10/28 06:11:16;;;;;;;;;;;;;;;19.51;nan;102246.66;5028139;28;1528;-65
2021/10/28 06:13:46;;;;;;;;;;;;;;;19.54;nan;102231.22;5030861;28;1552;-65
2021/10/28 06:16:13;;;;;;;;;;;;;;;19.54;nan;102241.09;5030146;28;1462;-67
2021/10/28 06:18:41;;;;;;;;;;;;;;;19.56;nan;102245.41;5029271;28;1445;-61
2021/10/28 06:21:09;;;;;;;;;;;;;;;19.54;nan;102243.78;5030703;28;1902;-65
2021/10/28 06:23:36;;;;;;;;;;;;;;;19.52;nan;102251.06;5027006;28;1619;-63
2021/10/28 06:26:03;;;;;;;;;;;;;;;19.57;nan;102241.72;5031092;28;1433;-64
2021/10/28 06:28:31;;;;;;;;;;;;;;;19.59;nan;102244.31;5038129;28;1557;-63
2021/10/28 06:30:58;;;;;;;;;;;;;;;19.58;nan;102253.34;5030121;28;1524;-64
2021/10/28 06:33:26;;;;;;;;;;;;;;;19.56;nan;102239.19;5029068;28;1572;-64
2021/10/28 06:35:52;;;;;;;;;;;;;;;19.55;nan;102249.03;5031784;28;1481;-64
2021/10/28 06:38:19;;;;;;;;;;;;;;;19.52;nan;102240.31;5029345;28;1261;-65
2021/10/28 06:40:46;;;;;;;;;;;;;;;19.66;nan;102242.94;5030287;28;1914;-61
2021/10/28 06:43:13;;;;;;;;;;;;;;;19.65;nan;102238.53;5029349;28;1447;-61
2021/10/28 06:45:40;;;;;;;;;;;;;;;19.62;nan;102249.50;5028030;28;1453;-67
2021/10/28 06:48:07;;;;;;;;;;;;;;;19.61;nan;102243.25;5029002;28;1390;-67
2021/10/28 06:50:40;;;;;;;;;;;;;;;19.66;nan;102245.63;5027990;28;1285;-57
2021/10/28 06:53:11;;;;;;;;;;;;;;;19.70;nan;102240.94;5028426;28;1672;-59
2021/10/28 06:55:44;;;;;;;;;;;;;;;19.71;nan;102242.63;5029427;28;1543;-59
2021/10/28 07:03:40;;;;;;;;;;;;;;;19.76;nan;102249.44;5021022;28;1387;-60
2021/10/28 07:06:10;;;;;;;;;;;;;;;19.72;nan;102242.56;5027318;28;1426;-58
2021/10/28 07:08:39;;;;;;;;;;;;;;;19.66;nan;102256.38;5032727;28;1498;-59
2021/10/28 07:11:09;;;;;;;;;;;;;;;19.61;nan;102258.50;5026792;28;1551;-59
2021/10/28 07:13:40;;;;;;;;;;;;;;;19.57;nan;102246.25;5029771;28;1429;-58
2021/10/28 07:16:19;;;;;;;;;;;;;;;19.64;nan;102248.41;5029114;28;1511;-65
2021/10/28 07:18:54;;;;;;;;;;;;;;;19.69;nan;102253.47;5019822;28;1458;-58
2021/10/28 07:21:37;;;;;;;;;;;;;;;19.61;nan;102237.03;5027423;28;1946;-64
2021/10/28 07:24:21;;;;;;;;;;;;;;;19.63;nan;102248.50;5027906;28;1556;-61
2021/10/28 08:19:45;;;;;;;;;;;;;;;19.54;62.31;102225.00;5106490;28;1826;-43
2021/10/28 08:22:30;;;;;;;;;;;;;;;19.53;62.67;102226.81;5100894;28;1635;-43
2021/10/28 08:30:28;;;;;;;;;;;;;;;19.46;63.11;102229.06;5111911;28;1893;-43
2021/10/28 08:35:39;;;;;;;;;;;;;;;19.48;62.38;102219.06;5110236;28;2190;-43
2021/10/28 08:38:11;;;;;;;;;;;;;;;19.45;62.67;102208.53;5115916;28;1378;-42
2021/10/28 08:40:41;;;;;;;;;;;;;;;19.44;63.33;102222.94;5106810;28;2172;-42
2021/10/28 08:43:08;;;;;;;;;;;;;;;19.45;63.50;102213.91;5110104;28;1506;-43
2021/10/28 08:45:48;;;;;;;;;;;;;;;19.44;63.10;102222.94;5098062;28;1553;-42
2021/10/28 08:48:17;;;;;;;;;;;;;;;19.43;63.83;102209.63;5101585;28;1659;-42
2021/10/28 08:50:48;;;;;;;;;;;;;;;19.42;62.99;102215.97;5100010;28;2184;-42
2021/10/28 08:53:34;;;;;;;;;;;;;;;19.42;63.80;102216.81;5104257;28;1856;-42
2021/10/28 08:56:08;;;;;;;;;;;;;;;19.43;63.15;102218.50;5102698;28;1982;-43
2021/10/28 08:59:21;;;;;;;;;;;;;;;19.37;63.05;102212.72;5098438;28;1508;-43
2021/10/28 09:24:15;;;;;;;;;;;;;;;19.36;64.30;102206.50;5097688;28;1469;-45
2021/10/28 09:27:16;;;;;;;;;;;;;;;19.42;64.38;102200.72;5092482;28;2102;-46
2021/10/28 09:29:51;;;;;;;;;;;;;;;19.44;64.12;102192.56;5085458;28;1610;-45
2021/10/28 09:32:28;;;;;;;;;;;;;;;19.49;63.67;102193.09;5084161;28;1532;-45
2021/10/28 09:43:45;;;;;;;;;;;;;;;19.45;64.78;102191.59;5082512;28;1826;-45
2021/10/28 09:46:18;;;;;;;;;;;;;;;19.47;64.91;102197.72;5081735;28;1628;-42
2021/10/28 09:51:32;;;;;;;;;;;;;;;19.55;64.74;102190.00;5059783;28;1764;-43
2021/10/28 09:54:06;;;;;;;;;;;;;;;19.55;64.47;102173.03;5085750;28;1688;-42
2021/10/28 09:59:24;;;;;;;;;;;;;;;19.54;64.04;102182.06;5081956;28;1553;-42
2021/10/28 10:01:51;;;;;;;;;;;;;;;19.54;65.19;102174.03;5083577;28;1624;-43
2021/10/28 10:04:17;;;;;;;;;;;;;;;19.51;64.82;102176.91;5084901;28;1716;-43
2021/10/28 10:06:45;;;;;;;;;;;;;;;19.49;65.29;102171.63;5083715;28;1617;-43
2021/10/28 10:09:13;;;;;;;;;;;;;;;19.45;65.39;102157.56;5081509;28;1627;-43
2021/10/28 10:11:39;;;;;;;;;;;;;;;19.44;65.90;102161.22;5084556;28;1843;-42
2021/10/28 10:14:06;;;;;;;;;;;;;;;19.51;65.35;102155.44;5082379;28;2032;-43
2021/10/28 10:16:34;;;;;;;;;;;;;;;19.56;64.91;102154.16;5081869;28;2433;-43
2021/10/28 10:19:01;;;;;;;;;;;;;;;19.53;65.45;102153.50;5082502;28;1790;-41
2021/10/28 10:21:35;;;;;;;;;;;;;;;19.47;65.34;102157.47;5086684;28;1722;-42
2021/10/28 10:24:08;;;;;;;;;;;;;;;19.50;64.79;102154.59;5088188;28;1501;-42
2021/10/28 11:27:07;;;;;;;;;;;;;;;18.85;62.57;102091.03;5074608;28;1783;-45
2021/10/28 11:32:41;;;;;;;;;;;;;;;18.89;62.63;102079.16;5085931;28;1472;-45
2021/10/28 12:25:27;;;;;;;;;;;;;;;19.10;64.78;102027.72;5084914;28;1630;-45
2021/10/28 12:44:58;;;;;;;;;;;;;;;18.99;65.40;102013.22;5036995;28;1736;-44
2021/10/28 12:56:13;;;;;;;;;;;;;;;19.02;65.51;102029.09;5086885;28;2711;-43
2021/10/28 13:07:38;;;;;;;;;;;;;;;18.94;65.28;102001.09;5080790;28;2511;-42
2021/10/28 13:52:05;;;;;;;;;;;;;;;18.92;65.95;101990.50;5085194;28;2670;-44
2021/10/28 14:00:39;;;;;;;;;;;;;;;18.99;67.99;101993.59;5088986;28;2015;-44
2021/10/28 14:58:26;;;;;;;;;;;;;;;18.96;68.55;101967.88;5061590;28;1809;-41
2021/10/28 15:29:45;;;;;;;;;;;;;;;18.95;69.29;101987.59;5087557;28;1474;-45
2021/10/28 15:35:28;;;;;;;;;;;;;;;19.01;70.31;101997.03;5085718;28;1896;-44
2021/10/28 15:40:59;;;;;;;;;;;;;;;18.81;69.38;101996.56;5088121;28;1614;-42
2021/10/28 15:57:19;;;;;;;;;;;;;;;18.88;69.32;101986.31;5087810;28;1975;-43
2021/10/28 16:21:55;;;;;;;;;;;;;;;18.83;69.07;101994.66;5084081;28;1818;-41
2021/10/28 16:24:24;;;;;;;;;;;;;;;18.82;69.18;101997.41;5091164;28;1552;-42
2021/10/28 16:29:47;;;;;;;;;;;;;;;18.84;68.81;102003.53;5077976;28;2132;-42
2021/10/28 16:32:14;;;;;;;;;;;;;;;18.87;69.46;102001.50;5082947;28;1760;-42
2021/10/28 16:34:41;;;;;;;;;;;;;;;18.82;69.31;102002.78;5086155;28;1779;-42
2021/10/28 16:37:13;;;;;;;;;;;;;;;18.75;69.22;102002.31;5080908;28;1909;-42
2021/10/28 16:39:41;;;;;;;;;;;;;;;18.78;69.39;102002.13;5085477;28;1530;-42
2021/10/28 16:42:09;;;;;;;;;;;;;;;18.80;68.85;102002.03;5083728;28;1551;-43
2021/10/28 16:44:41;;;;;;;;;;;;;;;18.49;67.17;102002.25;5084820;28;2048;-42
2021/10/28 16:47:08;;;;;;;;;;;;;;;18.67;69.11;101994.78;5092700;28;1796;-42
2021/10/28 16:49:38;;;;;;;;;;;;;;;18.75;68.88;101994.28;5088581;28;1755;-41
2021/10/28 16:52:06;;;;;;;;;;;;;;;18.74;68.72;101999.72;5092232;28;1819;-42
2021/10/28 16:54:35;;;;;;;;;;;;;;;18.75;68.98;102004.16;5085400;28;1771;-42
2021/10/28 16:57:03;;;;;;;;;;;;;;;18.76;68.44;102025.50;5086150;28;1906;-41
2021/10/28 16:59:31;;;;;;;;;;;;;;;18.74;68.64;102005.97;5082244;28;1909;-42
2021/10/28 17:02:00;;;;;;;;;;;;;;;18.76;69.10;102008.53;5089416;28;1648;-41
2021/10/28 17:07:14;;;;;;;;;;;;;;;18.73;69.28;102014.09;5082855;28;1683;-42
2021/10/28 17:09:40;;;;;;;;;;;;;;;18.76;68.69;102004.03;5087989;28;1703;-42
2021/10/28 17:12:07;;;;;;;;;;;;;;;18.74;68.49;102010.44;5090998;28;1385;-42
2021/10/28 17:14:35;;;;;;;;;;;;;;;18.76;68.85;102012.09;5084239;28;1774;-43
2021/10/28 17:17:01;;;;;;;;;;;;;;;18.73;63.62;102011.44;5086105;28;1913;-42
2021/10/28 17:19:28;;;;;;;;;;;;;;;18.72;68.77;102023.97;5091672;28;1761;-42
2021/10/28 17:21:55;;;;;;;;;;;;;;;18.77;68.45;102015.63;5091988;28;1674;-42
2021/10/28 17:24:25;;;;;;;;;;;;;;;18.76;68.42;102024.59;5089326;28;1642;-42
2021/10/28 17:26:51;;;;;;;;;;;;;;;18.54;64.68;102019.81;5094155;28;1519;-42
2021/10/28 17:29:18;;;;;;;;;;;;;;;18.55;64.17;102019.72;5094200;28;1978;-42
2021/10/28 17:31:46;;;;;;;;;;;;;;;19.01;66.93;102018.47;5094256;28;1820;-41
2021/10/28 17:34:12;;;;;;;;;;;;;;;18.94;67.29;102011.81;5093142;28;1620;-41
2021/10/28 17:36:39;;;;;;;;;;;;;;;19.07;68.14;102021.59;5092414;28;1898;-41
2021/10/28 17:39:05;;;;;;;;;;;;;;;18.96;68.79;102005.41;5087517;28;1678;-41
2021/10/28 17:41:32;;;;;;;;;;;;;;;18.86;68.15;102018.56;5093816;28;1962;-42
2021/10/28 17:43:59;;;;;;;;;;;;;;;17.85;60.51;102018.00;5093332;28;1810;-41
2021/10/28 17:46:26;;;;;;;;;;;;;;;18.37;67.06;102020.97;5091774;28;1945;-41
2021/10/28 17:48:55;;;;;;;;;;;;;;;18.56;67.47;102029.50;5086059;28;1806;-41
2021/10/28 17:51:22;;;;;;;;;;;;;;;18.58;63.05;102027.59;5088675;28;1774;-42
2021/10/28 17:53:48;;;;;;;;;;;;;;;18.59;67.43;102015.88;5094048;28;1742;-42
2021/10/28 17:56:15;;;;;;;;;;;;;;;18.51;67.58;102010.19;5090668;28;2884;-48
2021/10/28 17:58:42;;;;;;;;;;;;;;;18.60;68.23;102012.25;5087764;28;1526;-51
2021/10/28 18:01:08;;;;;;;;;;;;;;;18.62;67.81;102023.72;5089563;28;1809;-54
2021/10/28 18:03:35;;;;;;;;;;;;;;;18.64;67.46;102019.13;5088773;28;1875;-53
2021/10/28 18:06:03;;;;;;;;;;;;;;;18.63;68.22;102017.41;5086161;28;1674;-54
2021/10/28 18:08:29;;;;;;;;;;;;;;;18.61;68.65;102015.78;5094010;28;1422;-53
2021/10/28 18:10:55;;;;;;;;;;;;;;;18.60;68.15;102014.94;5085720;28;1813;-52
2021/10/28 18:13:22;;;;;;;;;;;;;;;18.62;68.62;102022.84;5091064;28;1710;-52
2021/10/28 18:15:51;;;;;;;;;;;;;;;18.59;68.47;102013.19;5086447;28;1916;-52
2021/10/28 18:18:17;;;;;;;;;;;;;;;18.59;68.85;102005.16;5085616;28;1906;-51
2021/10/28 18:20:44;;;;;;;;;;;;;;;18.59;68.37;102002.50;5090090;28;1585;-51
2021/10/28 18:23:12;;;;;;;;;;;;;;;18.57;68.08;102015.13;5088600;28;1632;-53
2021/10/28 18:25:38;;;;;;;;;;;;;;;18.54;67.95;102009.13;5092732;28;2069;-42
2021/10/28 18:28:05;;;;;;;;;;;;;;;18.49;67.12;102012.09;5089314;28;1778;-42
2021/10/28 18:30:35;;;;;;;;;;;;;;;18.53;68.67;102015.44;5088675;28;1541;-43
2021/10/28 18:33:02;;;;;;;;;;;;;;;18.31;66.18;102019.53;5087804;28;1728;-42
2021/10/28 18:35:28;;;;;;;;;;;;;;;18.24;64.59;102023.56;5087242;28;1647;-42
2021/10/28 18:37:55;;;;;;;;;;;;;;;18.37;67.20;102018.28;5088225;28;1996;-43
2021/10/28 18:40:23;;;;;;;;;;;;;;;18.08;64.15;102007.63;5085516;28;2038;-43
2021/10/28 18:42:50;;;;;;;;;;;;;;;18.34;66.23;102027.34;5084826;28;1678;-43
2021/10/28 18:45:16;;;;;;;;;;;;;;;18.43;68.20;102009.84;5089794;28;1687;-42
2021/10/28 18:47:43;;;;;;;;;;;;;;;18.45;67.71;102021.31;5091797;28;1436;-43
2021/10/28 18:50:10;;;;;;;;;;;;;;;18.45;67.94;102026.66;5085595;28;1883;-43
2021/10/28 18:52:36;;;;;;;;;;;;;;;18.43;68.43;102018.72;5092775;28;1698;-43
2021/10/28 18:55:04;;;;;;;;;;;;;;;18.46;68.12;102025.69;5089777;28;1606;-42
2021/10/28 18:57:32;;;;;;;;;;;;;;;18.47;68.12;102025.59;5089969;28;1972;-43
2021/10/28 18:59:59;;;;;;;;;;;;;;;18.48;68.21;102032.69;5087701;28;1559;-42
2021/10/28 19:02:27;;;;;;;;;;;;;;;18.47;68.51;102008.66;5089413;28;1604;-42
2021/10/28 19:04:53;;;;;;;;;;;;;;;18.49;68.38;102028.19;5087950;28;1795;-43
2021/10/28 19:07:20;;;;;;;;;;;;;;;18.46;68.67;102023.88;5088494;28;1765;-43
2021/10/28 19:09:46;;;;;;;;;;;;;;;18.48;68.58;102037.16;5087798;28;1533;-43
2021/10/28 19:12:13;;;;;;;;;;;;;;;18.50;68.54;102040.59;5088335;28;1656;-43
2021/10/28 19:14:43;;;;;;;;;;;;;;;18.46;68.12;102034.59;5090226;28;1571;-43
2021/10/28 19:17:10;;;;;;;;;;;;;;;18.44;68.55;102028.50;5090227;28;1965;-42
2021/10/28 19:19:36;;;;;;;;;;;;;;;18.48;68.60;102045.19;5088288;28;1461;-43
2021/10/28 19:22:03;;;;;;;;;;;;;;;18.45;68.54;102032.03;5090556;28;1715;-43
2021/10/28 19:24:30;;;;;;;;;;;;;;;18.48;68.34;102042.50;5085441;28;1780;-43
2021/10/28 19:26:56;;;;;;;;;;;;;;;18.46;68.58;102029.25;5084891;28;1894;-43
2021/10/28 19:29:24;;;;;;;;;;;;;;;18.47;68.50;102041.66;5024352;28;11177;-43
2021/10/28 19:31:55;;;;;;;;;;;;;;;18.29;66.63;102021.44;5048831;28;1582;-43
2021/10/28 19:34:22;;;;;;;;;;;;;;;18.39;67.88;102027.91;5048381;28;1722;-43
2021/10/28 19:36:59;;;;;;;;;;;;;;;18.42;68.23;102033.09;5048425;28;1910;-43
2021/10/28 19:39:48;;;;;;;;;;;;;;;18.43;68.32;102028.59;5049008;28;1566;-42
2021/10/28 19:42:36;;;;;;;;;;;;;;;18.44;68.18;102033.84;5050117;28;1836;-44
2021/10/28 19:45:14;;;;;;;;;;;;;;;18.46;68.68;102039.06;5048636;28;1718;-46
2021/10/28 19:47:42;;;;;;;;;;;;;;;18.48;68.09;102032.69;5043035;28;1851;-42
2021/10/28 19:50:11;;;;;;;;;;;;;;;18.50;67.79;102029.88;5042980;28;1481;-45
2021/10/28 19:52:38;;;;;;;;;;;;;;;18.46;68.17;102023.00;5047377;28;1419;-42
2021/10/28 19:55:05;;;;;;;;;;;;;;;18.46;68.14;102026.56;5046340;28;1833;-43
2021/10/28 19:57:35;;;;;;;;;;;;;;;18.50;68.59;102035.22;4998388;28;11349;-43
2021/10/28 20:00:08;;;;;;;;;;;;;;;18.49;67.92;102036.22;4976141;28;1779;-43
2021/10/28 20:02:49;;;;;;;;;;;;;;;18.54;67.55;102034.06;5022808;28;1775;-44
2021/10/28 20:05:30;;;;;;;;;;;;;;;18.52;68.10;102032.47;5024147;28;1578;-43
2021/10/28 20:08:14;;;;;;;;;;;;;;;18.87;66.17;102028.31;5026585;28;1478;-40
2021/10/28 20:22:01;;;;;;;;;;;;;;;18.74;66.24;102039.94;4966151;28;1724;-40
2021/10/28 20:24:27;;;;;;;;;;;;;;;18.74;65.81;102042.59;4996571;28;2072;-42
2021/10/28 20:26:54;;;;;;;;;;;;;;;18.72;66.45;102042.72;5024039;28;1408;-41
2021/10/28 20:29:21;;;;;;;;;;;;;;;18.71;65.53;102032.13;5021872;28;1816;-41
2021/10/28 20:31:47;;;;;;;;;;;;;;;18.68;65.90;102036.72;5024630;28;1872;-41
2021/10/28 20:34:25;;;;;;;;;;;;;;;18.67;65.83;102037.66;5021861;28;1574;-41
2021/10/28 20:37:08;;;;;;;;;;;;;;;18.72;64.86;102033.81;5024504;28;1973;-41
2021/10/28 20:39:36;;;;;;;;;;;;;;;18.65;65.12;102036.91;5023346;28;1949;-41
2021/10/28 20:42:03;;;;;;;;;;;;;;;18.68;65.30;102039.41;5021197;28;1545;-41
2021/10/28 20:44:30;;;;;;;;;;;;;;;18.66;64.24;102035.97;5018861;28;1815;-41
2021/10/28 20:46:56;;;;;;;;;;;;;;;18.66;64.59;102030.59;5029328;28;1909;-42
2021/10/28 20:49:23;;;;;;;;;;;;;;;18.66;64.24;102029.72;5026628;28;1542;-41
2021/10/28 20:51:50;;;;;;;;;;;;;;;18.67;63.98;102032.31;5023448;28;1948;-41
2021/10/28 20:54:16;;;;;;;;;;;;;;;18.64;64.34;102031.66;5023225;28;1550;-41
2021/10/28 20:56:44;;;;;;;;;;;;;;;18.66;64.68;102027.03;5025587;28;2106;-41
2021/10/28 20:59:10;;;;;;;;;;;;;;;18.63;63.94;102024.59;5026601;28;1940;-41
2021/10/28 21:01:37;;;;;;;;;;;;;;;18.63;63.93;102029.94;5018088;28;1689;-41
2021/10/28 21:04:03;;;;;;;;;;;;;;;18.64;64.14;102029.84;5025531;28;1837;-41
2021/10/28 21:06:30;;;;;;;;;;;;;;;18.64;63.74;102032.53;5022549;28;1619;-41
2021/10/28 21:08:59;;;;;;;;;;;;;;;18.62;63.80;102029.09;5031281;28;1798;-41
2021/10/28 21:11:26;;;;;;;;;;;;;;;18.62;63.76;102031.78;5029815;28;2112;-41
2021/10/28 21:13:57;;;;;;;;;;;;;;;18.63;63.33;102019.22;5026324;28;1650;-41
2021/10/28 21:16:27;;;;;;;;;;;;;;;18.61;63.31;102032.72;5019179;28;1580;-42
2021/10/28 21:18:53;;;;;;;;;;;;;;;18.61;63.50;102032.72;5025716;28;1985;-41
2021/10/28 21:21:20;;;;;;;;;;;;;;;18.60;63.50;102031.00;5017159;28;1817;-41
2021/10/28 21:23:46;;;;;;;;;;;;;;;18.58;63.08;102032.94;5026161;28;1405;-41